createdAt,value
2016-12-06T00:00:27.802Z,923.67
2016-12-06T00:00:57.943Z,923.69
2016-12-06T00:01:27.740Z,923.67
2016-12-06T00:01:55.813Z,923.72
2016-12-06T00:02:23.688Z,923.74
2016-12-06T00:02:52.023Z,923.71
2016-12-06T00:03:20.133Z,923.69
2016-12-06T00:03:47.884Z,923.73
2016-12-06T00:04:15.613Z,923.72
2016-12-06T00:04:43.487Z,923.71
2016-12-06T00:05:11.786Z,923.66
2016-12-06T00:05:40.629Z,923.7
2016-12-06T00:06:09.372Z,923.71
2016-12-06T00:06:37.475Z,923.69
2016-12-06T00:07:05.592Z,923.73
2016-12-06T00:07:33.716Z,923.75
2016-12-06T00:08:01.846Z,923.74
2016-12-06T00:08:30.010Z,923.76
2016-12-06T00:08:58.151Z,923.77
2016-12-06T00:09:26.308Z,923.77
2016-12-06T00:09:54.478Z,923.75
2016-12-06T00:10:22.704Z,923.78
2016-12-06T00:10:50.827Z,923.77
2016-12-06T00:11:18.611Z,923.79
2016-12-06T00:11:46.680Z,923.78
2016-12-06T00:12:21.261Z,923.8
2016-12-06T00:12:52.215Z,923.81
2016-12-06T00:13:20.668Z,923.81
2016-12-06T00:13:48.526Z,923.82
2016-12-06T00:14:16.667Z,923.83
2016-12-06T00:14:44.845Z,923.82
2016-12-06T00:15:12.616Z,923.82
2016-12-06T00:15:40.733Z,923.82
2016-12-06T00:16:08.529Z,923.87
2016-12-06T00:16:36.403Z,923.87
2016-12-06T00:17:04.239Z,923.88
2016-12-06T00:17:32.055Z,923.9
2016-12-06T00:17:59.828Z,923.88
2016-12-06T00:18:27.960Z,923.88
2016-12-06T00:18:55.726Z,923.88
2016-12-06T00:19:23.910Z,923.89
2016-12-06T00:19:52.005Z,923.92
2016-12-06T00:20:20.079Z,923.9
2016-12-06T00:20:47.911Z,923.88
2016-12-06T00:21:15.702Z,923.9
2016-12-06T00:21:43.443Z,923.96
2016-12-06T00:22:11.232Z,923.97
2016-12-06T00:22:39.408Z,924
2016-12-06T00:23:07.432Z,923.99
2016-12-06T00:23:35.233Z,924.03
2016-12-06T00:24:03.421Z,924.03
2016-12-06T00:24:31.905Z,924.1
2016-12-06T00:24:59.716Z,924.06
2016-12-06T00:25:27.577Z,924.08
2016-12-06T00:25:55.393Z,924.05
2016-12-06T00:26:23.521Z,924.06
2016-12-06T00:26:51.345Z,924.03
2016-12-06T00:27:19.205Z,924.03
2016-12-06T00:27:47.013Z,924.05
2016-12-06T00:28:15.172Z,924.05
2016-12-06T00:28:43.347Z,924.04
2016-12-06T00:29:11.118Z,924.04
2016-12-06T00:29:38.968Z,924.05
2016-12-06T00:30:06.740Z,924.02
2016-12-06T00:30:34.515Z,924
2016-12-06T00:31:02.651Z,924
2016-12-06T00:31:30.843Z,923.99
2016-12-06T00:31:58.723Z,924.02
2016-12-06T00:32:26.442Z,924.06
2016-12-06T00:32:55.273Z,923.98
2016-12-06T00:33:23.461Z,924.03
2016-12-06T00:33:51.527Z,924.02
2016-12-06T00:34:19.737Z,924
2016-12-06T00:34:48.249Z,924.03
2016-12-06T00:35:16.400Z,924.05
2016-12-06T00:35:44.208Z,924.03
2016-12-06T00:36:12.878Z,924.03
2016-12-06T00:36:40.705Z,924.06
2016-12-06T00:37:09.064Z,924.06
2016-12-06T00:37:36.848Z,924.1
2016-12-06T00:38:05.254Z,924.13
2016-12-06T00:38:33.376Z,924.12
2016-12-06T00:39:01.203Z,924.14
2016-12-06T00:39:28.995Z,924.1
2016-12-06T00:39:57.339Z,924.15
2016-12-06T00:40:25.563Z,924.12
2016-12-06T00:40:53.352Z,924.13
2016-12-06T00:41:21.425Z,924.14
2016-12-06T00:41:49.287Z,924.13
2016-12-06T00:42:17.496Z,924.15
2016-12-06T00:42:45.588Z,924.11
2016-12-06T00:43:13.579Z,924.11
2016-12-06T00:43:41.529Z,924.16
2016-12-06T00:44:09.661Z,924.15
2016-12-06T00:44:37.467Z,924.15
2016-12-06T00:45:05.273Z,924.15
2016-12-06T00:45:33.358Z,924.16
2016-12-06T00:46:01.886Z,924.17
2016-12-06T00:46:29.695Z,924.16
2016-12-06T00:46:57.455Z,924.12
2016-12-06T00:47:25.248Z,924.15
2016-12-06T00:47:53.062Z,924.12
2016-12-06T00:48:20.930Z,924.15
2016-12-06T00:48:48.729Z,924.16
2016-12-06T00:49:16.568Z,924.18
2016-12-06T00:49:44.363Z,924.12
2016-12-06T00:50:12.196Z,924.14
2016-12-06T00:50:40.312Z,924.14
2016-12-06T00:51:08.080Z,924.1
2016-12-06T00:51:35.881Z,924.15
2016-12-06T00:52:03.965Z,924.14
2016-12-06T00:52:32.100Z,924.14
2016-12-06T00:52:59.876Z,924.15
2016-12-06T00:53:27.992Z,924.17
2016-12-06T00:53:56.116Z,924.18
2016-12-06T00:54:24.017Z,924.18
2016-12-06T00:54:52.087Z,924.15
2016-12-06T00:55:19.929Z,924.21
2016-12-06T00:55:47.719Z,924.19
2016-12-06T00:56:15.568Z,924.17
2016-12-06T00:56:43.356Z,924.15
2016-12-06T00:57:11.144Z,924.17
2016-12-06T00:57:38.940Z,924.19
2016-12-06T00:58:06.903Z,924.19
2016-12-06T00:58:34.676Z,924.17
2016-12-06T00:59:02.395Z,924.19
2016-12-06T00:59:30.154Z,924.16
2016-12-06T00:59:58.281Z,924.23
2016-12-06T01:00:26.659Z,924.24
2016-12-06T01:00:54.823Z,924.2
2016-12-06T01:01:22.623Z,924.2
2016-12-06T01:01:50.447Z,924.2
2016-12-06T01:02:18.267Z,924.22
2016-12-06T01:02:46.056Z,924.21
2016-12-06T01:03:14.537Z,924.18
2016-12-06T01:03:42.389Z,924.21
2016-12-06T01:04:10.503Z,924.21
2016-12-06T01:04:38.712Z,924.21
2016-12-06T01:05:06.533Z,924.17
2016-12-06T01:05:34.283Z,924.16
2016-12-06T01:06:02.239Z,924.2
2016-12-06T01:06:30.089Z,924.21
2016-12-06T01:06:57.926Z,924.17
2016-12-06T01:07:25.949Z,924.19
2016-12-06T01:07:53.758Z,924.16
2016-12-06T01:08:21.743Z,924.18
2016-12-06T01:08:50.182Z,924.2
2016-12-06T01:09:18.356Z,924.19
2016-12-06T01:09:46.274Z,924.18
2016-12-06T01:10:14.088Z,924.24
2016-12-06T01:10:41.939Z,924.21
2016-12-06T01:11:09.769Z,924.24
2016-12-06T01:11:37.610Z,924.25
2016-12-06T01:12:05.788Z,924.26
2016-12-06T01:12:33.551Z,924.23
2016-12-06T01:13:01.705Z,924.27
2016-12-06T01:13:29.849Z,924.25
2016-12-06T01:13:57.765Z,924.28
2016-12-06T01:14:25.932Z,924.3
2016-12-06T01:14:53.731Z,924.27
2016-12-06T01:15:21.454Z,924.26
2016-12-06T01:15:49.257Z,924.3
2016-12-06T01:16:17.689Z,924.28
2016-12-06T01:16:45.755Z,924.25
2016-12-06T01:17:13.876Z,924.25
2016-12-06T01:17:41.715Z,924.25
2016-12-06T01:18:09.522Z,924.25
2016-12-06T01:18:37.377Z,924.3
2016-12-06T01:19:05.235Z,924.26
2016-12-06T01:19:33.350Z,924.27
2016-12-06T01:20:01.521Z,924.31
2016-12-06T01:20:29.652Z,924.3
2016-12-06T01:20:57.460Z,924.34
2016-12-06T01:21:25.280Z,924.36
2016-12-06T01:21:53.455Z,924.32
2016-12-06T01:22:21.282Z,924.3
2016-12-06T01:22:49.157Z,924.33
2016-12-06T01:23:17.177Z,924.3
2016-12-06T01:23:44.939Z,924.28
2016-12-06T01:24:12.698Z,924.29
2016-12-06T01:24:41.099Z,924.29
2016-12-06T01:25:08.896Z,924.31
2016-12-06T01:25:36.611Z,924.27
2016-12-06T01:26:05.074Z,924.31
2016-12-06T01:26:32.916Z,924.3
2016-12-06T01:27:00.686Z,924.33
2016-12-06T01:27:28.861Z,924.35
2016-12-06T01:27:57.042Z,924.32
2016-12-06T01:28:25.357Z,924.37
2016-12-06T01:28:53.293Z,924.4
2016-12-06T01:29:21.128Z,924.37
2016-12-06T01:29:49.558Z,924.4
2016-12-06T01:30:17.324Z,924.43
2016-12-06T01:30:45.099Z,924.46
2016-12-06T01:31:12.920Z,924.45
2016-12-06T01:31:40.726Z,924.47
2016-12-06T01:32:08.538Z,924.45
2016-12-06T01:32:36.696Z,924.45
2016-12-06T01:33:04.458Z,924.46
2016-12-06T01:33:32.447Z,924.42
2016-12-06T01:34:00.570Z,924.43
2016-12-06T01:34:28.420Z,924.44
2016-12-06T01:34:57.146Z,924.43
2016-12-06T01:35:24.974Z,924.47
2016-12-06T01:35:53.114Z,924.43
2016-12-06T01:36:20.844Z,924.42
2016-12-06T01:36:48.774Z,924.45
2016-12-06T01:37:16.554Z,924.42
2016-12-06T01:37:44.522Z,924.39
2016-12-06T01:38:12.283Z,924.39
2016-12-06T01:38:40.215Z,924.39
2016-12-06T01:39:08.367Z,924.35
2016-12-06T01:39:36.198Z,924.38
2016-12-06T01:40:04.034Z,924.35
2016-12-06T01:40:31.858Z,924.34
2016-12-06T01:40:59.729Z,924.31
2016-12-06T01:41:27.562Z,924.28
2016-12-06T01:41:55.364Z,924.31
2016-12-06T01:42:24.406Z,924.29
2016-12-06T01:42:52.800Z,924.29
2016-12-06T01:43:20.533Z,924.29
2016-12-06T01:43:48.348Z,924.32
2016-12-06T01:44:16.145Z,924.34
2016-12-06T01:44:44.173Z,924.28
2016-12-06T01:45:12.040Z,924.29
2016-12-06T01:45:39.917Z,924.28
2016-12-06T01:46:08.092Z,924.28
2016-12-06T01:46:36.251Z,924.3
2016-12-06T01:47:04.325Z,924.26
2016-12-06T01:47:32.115Z,924.27
2016-12-06T01:48:00.288Z,924.22
2016-12-06T01:48:28.120Z,924.22
2016-12-06T01:48:56.693Z,924.19
2016-12-06T01:49:24.456Z,924.2
2016-12-06T01:49:52.659Z,924.17
2016-12-06T01:50:20.771Z,924.19
2016-12-06T01:50:48.873Z,924.19
2016-12-06T01:51:16.691Z,924.2
2016-12-06T01:51:44.817Z,924.2
2016-12-06T01:52:12.637Z,924.21
2016-12-06T01:52:40.419Z,924.2
2016-12-06T01:53:08.528Z,924.19
2016-12-06T01:53:37.039Z,924.19
2016-12-06T01:54:04.841Z,924.21
2016-12-06T01:54:32.730Z,924.21
2016-12-06T01:55:00.579Z,924.22
2016-12-06T01:55:28.984Z,924.19
2016-12-06T01:55:56.804Z,924.19
2016-12-06T01:56:24.996Z,924.2
2016-12-06T01:56:53.177Z,924.15
2016-12-06T01:57:20.965Z,924.18
2016-12-06T01:57:48.784Z,924.15
2016-12-06T01:58:16.584Z,924.14
2016-12-06T01:58:44.511Z,924.16
2016-12-06T01:59:12.317Z,924.15
2016-12-06T01:59:40.169Z,924.13
2016-12-06T02:00:08.031Z,924.14
2016-12-06T02:00:35.801Z,924.17
2016-12-06T02:01:03.634Z,924.16
2016-12-06T02:01:31.419Z,924.19
2016-12-06T02:01:59.565Z,924.18
2016-12-06T02:02:27.339Z,924.17
2016-12-06T02:02:55.146Z,924.18
2016-12-06T02:03:22.939Z,924.14
2016-12-06T02:03:50.753Z,924.14
2016-12-06T02:04:18.885Z,924.13
2016-12-06T02:04:46.603Z,924.09
2016-12-06T02:05:14.426Z,924.1
2016-12-06T02:05:42.485Z,924.08
2016-12-06T02:06:10.308Z,924.11
2016-12-06T02:06:38.375Z,924.11
2016-12-06T02:07:06.178Z,924.04
2016-12-06T02:07:34.259Z,924.07
2016-12-06T02:08:02.408Z,924.09
2016-12-06T02:08:30.898Z,924.05
2016-12-06T02:08:58.985Z,924.06
2016-12-06T02:09:26.824Z,924.01
2016-12-06T02:09:54.788Z,924
2016-12-06T02:10:22.648Z,924.01
2016-12-06T02:10:50.557Z,924.03
2016-12-06T02:11:18.753Z,924.02
2016-12-06T02:11:46.582Z,924
2016-12-06T02:12:14.489Z,923.94
2016-12-06T02:12:42.634Z,923.96
2016-12-06T02:13:10.485Z,923.98
2016-12-06T02:13:38.222Z,923.99
2016-12-06T02:14:06.378Z,923.99
2016-12-06T02:14:34.215Z,923.96
2016-12-06T02:15:02.094Z,923.99
2016-12-06T02:15:30.262Z,923.95
2016-12-06T02:15:58.338Z,923.95
2016-12-06T02:16:26.832Z,923.94
2016-12-06T02:16:55.047Z,923.93
2016-12-06T02:17:22.855Z,923.92
2016-12-06T02:17:50.597Z,923.92
2016-12-06T02:18:18.698Z,923.95
2016-12-06T02:18:46.604Z,923.95
2016-12-06T02:19:14.580Z,923.95
2016-12-06T02:19:42.517Z,923.95
2016-12-06T02:20:10.308Z,923.91
2016-12-06T02:20:38.163Z,923.91
2016-12-06T02:21:06.308Z,923.91
2016-12-06T02:21:34.226Z,923.92
2016-12-06T02:22:02.353Z,923.91
2016-12-06T02:22:30.527Z,923.93
2016-12-06T02:22:58.312Z,923.93
2016-12-06T02:23:26.249Z,923.94
2016-12-06T02:23:54.385Z,923.95
2016-12-06T02:24:22.218Z,923.91
2016-12-06T02:24:50.077Z,923.91
2016-12-06T02:25:17.934Z,923.93
2016-12-06T02:25:46.098Z,923.93
2016-12-06T02:26:14.225Z,923.93
2016-12-06T02:26:42.016Z,923.93
2016-12-06T02:27:09.865Z,923.86
2016-12-06T02:27:37.650Z,923.92
2016-12-06T02:28:05.537Z,923.89
2016-12-06T02:28:33.305Z,923.87
2016-12-06T02:29:01.702Z,923.9
2016-12-06T02:29:29.499Z,923.89
2016-12-06T02:29:57.658Z,923.85
2016-12-06T02:30:25.776Z,923.88
2016-12-06T02:30:53.649Z,923.86
2016-12-06T02:31:21.781Z,923.86
2016-12-06T02:31:49.589Z,923.83
2016-12-06T02:32:17.724Z,923.86
2016-12-06T02:32:45.483Z,923.84
2016-12-06T02:33:13.331Z,923.84
2016-12-06T02:33:41.521Z,923.84
2016-12-06T02:34:09.790Z,923.83
2016-12-06T02:34:37.564Z,923.84
2016-12-06T02:35:05.329Z,923.82
2016-12-06T02:35:33.144Z,923.81
2016-12-06T02:36:01.160Z,923.83
2016-12-06T02:36:29.002Z,923.79
2016-12-06T02:36:57.720Z,923.81
2016-12-06T02:37:26.100Z,923.78
2016-12-06T02:37:53.957Z,923.79
2016-12-06T02:38:21.783Z,923.76
2016-12-06T02:38:49.559Z,923.82
2016-12-06T02:39:17.440Z,923.8
2016-12-06T02:39:45.933Z,923.81
2016-12-06T02:40:13.771Z,923.81
2016-12-06T02:40:41.570Z,923.77
2016-12-06T02:41:09.677Z,923.78
2016-12-06T02:41:38.103Z,923.75
2016-12-06T02:42:06.208Z,923.71
2016-12-06T02:42:34.366Z,923.71
2016-12-06T02:43:02.167Z,923.75
2016-12-06T02:43:30.291Z,923.73
2016-12-06T02:43:58.407Z,923.74
2016-12-06T02:44:26.411Z,923.71
2016-12-06T02:44:54.232Z,923.74
2016-12-06T02:45:22.107Z,923.74
2016-12-06T02:45:50.226Z,923.76
2016-12-06T02:46:18.377Z,923.77
2016-12-06T02:46:46.424Z,923.76
2016-12-06T02:47:14.520Z,923.75
2016-12-06T02:47:42.302Z,923.78
2016-12-06T02:48:10.428Z,923.75
2016-12-06T02:48:38.525Z,923.79
2016-12-06T02:49:06.978Z,923.77
2016-12-06T02:49:35.179Z,923.77
2016-12-06T02:50:03.867Z,923.8
2016-12-06T02:50:32.506Z,923.78
2016-12-06T02:51:00.378Z,923.8
2016-12-06T02:51:28.222Z,923.79
2016-12-06T02:51:56.381Z,923.8
2016-12-06T02:52:24.247Z,923.77
2016-12-06T02:52:52.132Z,923.78
2016-12-06T02:53:20.237Z,923.77
2016-12-06T02:53:48.295Z,923.76
2016-12-06T02:54:16.211Z,923.73
2016-12-06T02:54:44.425Z,923.73
2016-12-06T02:55:12.231Z,923.69
2016-12-06T02:55:40.464Z,923.72
2016-12-06T02:56:08.591Z,923.69
2016-12-06T02:56:37.290Z,923.64
2016-12-06T02:57:05.427Z,923.68
2016-12-06T02:57:33.366Z,923.64
2016-12-06T02:58:01.176Z,923.65
2016-12-06T02:58:29.000Z,923.61
2016-12-06T02:58:56.808Z,923.65
2016-12-06T02:59:24.826Z,923.62
2016-12-06T02:59:52.685Z,923.64
2016-12-06T03:00:20.528Z,923.61
2016-12-06T03:00:48.613Z,923.65
2016-12-06T03:01:16.445Z,923.62
2016-12-06T03:01:44.611Z,923.59
2016-12-06T03:02:14.004Z,923.58
2016-12-06T03:02:42.970Z,923.56
2016-12-06T03:03:10.811Z,923.63
2016-12-06T03:03:38.623Z,923.59
2016-12-06T03:04:06.379Z,923.64
2016-12-06T03:04:34.310Z,923.64
2016-12-06T03:05:02.573Z,923.63
2016-12-06T03:05:30.713Z,923.64
2016-12-06T03:06:13.202Z,923.64
2016-12-06T03:06:41.245Z,923.64
2016-12-06T03:07:09.106Z,923.65
2016-12-06T03:07:37.105Z,923.63
2016-12-06T03:08:19.527Z,923.6
2016-12-06T03:08:47.675Z,923.62
2016-12-06T03:09:15.824Z,923.62
2016-12-06T03:11:46.355Z,923.6
2016-12-06T03:12:14.386Z,923.57
2016-12-06T03:12:42.550Z,923.61
2016-12-06T03:13:11.012Z,923.6
2016-12-06T03:13:38.969Z,923.6
2016-12-06T03:14:07.269Z,923.6
2016-12-06T03:14:35.080Z,923.57
2016-12-06T03:15:02.889Z,923.58
2016-12-06T03:15:30.681Z,923.59
2016-12-06T03:15:59.144Z,923.56
2016-12-06T03:16:26.923Z,923.5
2016-12-06T03:16:54.716Z,923.52
2016-12-06T03:17:23.162Z,923.52
2016-12-06T03:17:50.973Z,923.5
2016-12-06T03:18:19.481Z,923.56
2016-12-06T03:18:47.589Z,923.54
2016-12-06T03:19:15.511Z,923.55
2016-12-06T03:19:43.396Z,923.56
2016-12-06T03:20:11.574Z,923.57
2016-12-06T03:20:39.354Z,923.6
2016-12-06T03:21:07.377Z,923.6
2016-12-06T03:21:35.328Z,923.59
2016-12-06T03:22:03.365Z,923.63
2016-12-06T03:22:31.125Z,923.61
2016-12-06T03:22:58.896Z,923.59
2016-12-06T03:23:26.682Z,923.64
2016-12-06T03:23:54.409Z,923.61
2016-12-06T03:24:22.131Z,923.56
2016-12-06T03:24:50.870Z,923.59
2016-12-06T03:25:19.001Z,923.63
2016-12-06T03:25:46.812Z,923.61
2016-12-06T03:26:14.553Z,923.59
2016-12-06T03:26:42.856Z,923.62
2016-12-06T03:27:11.345Z,923.59
2016-12-06T03:27:39.513Z,923.64
2016-12-06T03:28:07.594Z,923.57
2016-12-06T03:28:50.012Z,923.6
2016-12-06T03:29:17.820Z,923.58
2016-12-06T03:29:46.069Z,923.54
2016-12-06T03:30:28.781Z,923.54
2016-12-06T03:30:57.225Z,923.5
2016-12-06T03:31:26.065Z,923.52
2016-12-06T03:31:54.400Z,923.55
2016-12-06T03:32:22.163Z,923.56
2016-12-06T03:32:50.007Z,923.55
2016-12-06T03:33:17.817Z,923.54
2016-12-06T03:33:46.278Z,923.54
2016-12-06T03:34:14.544Z,923.59
2016-12-06T03:34:42.596Z,923.6
2016-12-06T03:35:11.016Z,923.56
2016-12-06T03:35:38.772Z,923.54
2016-12-06T03:36:06.607Z,923.6
2016-12-06T03:36:34.693Z,923.61
2016-12-06T03:37:02.521Z,923.6
2016-12-06T03:37:30.329Z,923.58
2016-12-06T03:37:58.502Z,923.59
2016-12-06T03:38:26.297Z,923.61
2016-12-06T03:38:55.009Z,923.59
2016-12-06T03:39:23.146Z,923.59
2016-12-06T03:39:51.247Z,923.58
2016-12-06T03:40:19.339Z,923.6
2016-12-06T03:40:47.521Z,923.58
2016-12-06T03:41:16.040Z,923.57
2016-12-06T03:41:43.868Z,923.57
2016-12-06T03:42:11.790Z,923.57
2016-12-06T03:42:39.964Z,923.55
2016-12-06T03:43:08.118Z,923.54
2016-12-06T03:43:35.922Z,923.51
2016-12-06T03:44:04.110Z,923.51
2016-12-06T03:44:31.911Z,923.49
2016-12-06T03:44:59.674Z,923.47
2016-12-06T03:45:27.885Z,923.43
2016-12-06T03:45:55.750Z,923.44
2016-12-06T03:46:23.573Z,923.42
2016-12-06T03:46:51.656Z,923.38
2016-12-06T03:47:20.078Z,923.34
2016-12-06T03:47:47.898Z,923.35
2016-12-06T03:48:15.670Z,923.32
2016-12-06T03:48:43.536Z,923.33
2016-12-06T03:49:11.692Z,923.29
2016-12-06T03:49:39.501Z,923.25
2016-12-06T03:50:07.352Z,923.27
2016-12-06T03:50:35.508Z,923.26
2016-12-06T03:51:03.592Z,923.24
2016-12-06T03:51:31.621Z,923.26
2016-12-06T03:51:59.887Z,923.3
2016-12-06T03:52:28.088Z,923.25
2016-12-06T03:52:56.271Z,923.24
2016-12-06T03:53:24.947Z,923.28
2016-12-06T03:53:52.807Z,923.26
2016-12-06T03:54:21.262Z,923.3
2016-12-06T03:54:49.043Z,923.28
2016-12-06T03:55:16.880Z,923.28
2016-12-06T03:55:44.999Z,923.34
2016-12-06T03:56:13.110Z,923.29
2016-12-06T03:56:40.992Z,923.3
2016-12-06T03:57:08.769Z,923.29
2016-12-06T03:57:36.817Z,923.24
2016-12-06T03:58:04.958Z,923.25
2016-12-06T03:58:32.727Z,923.23
2016-12-06T03:59:00.951Z,923.2
2016-12-06T03:59:29.942Z,923.23
2016-12-06T03:59:57.975Z,923.23
2016-12-06T04:00:26.111Z,923.21
2016-12-06T04:00:54.267Z,923.22
2016-12-06T04:01:22.046Z,923.24
2016-12-06T04:01:50.485Z,923.25
2016-12-06T04:02:18.763Z,923.29
2016-12-06T04:02:46.591Z,923.24
2016-12-06T04:03:14.388Z,923.27
2016-12-06T04:03:42.772Z,923.27
2016-12-06T04:04:10.983Z,923.29
2016-12-06T04:04:38.814Z,923.26
2016-12-06T04:05:06.929Z,923.25
2016-12-06T04:05:35.793Z,923.31
2016-12-06T04:06:03.870Z,923.27
2016-12-06T04:06:32.562Z,923.3
2016-12-06T04:07:00.602Z,923.26
2016-12-06T04:07:28.610Z,923.28
2016-12-06T04:07:56.429Z,923.3
2016-12-06T04:08:24.878Z,923.28
2016-12-06T04:08:52.760Z,923.3
2016-12-06T04:09:20.569Z,923.32
2016-12-06T04:09:48.392Z,923.33
2016-12-06T04:10:16.589Z,923.33
2016-12-06T04:10:45.091Z,923.33
2016-12-06T04:11:12.902Z,923.32
2016-12-06T04:11:40.719Z,923.3
2016-12-06T04:12:08.865Z,923.29
2016-12-06T04:12:36.657Z,923.3
2016-12-06T04:13:04.738Z,923.31
2016-12-06T04:13:32.553Z,923.31
2016-12-06T04:14:00.392Z,923.3
2016-12-06T04:14:28.226Z,923.29
2016-12-06T04:14:55.985Z,923.31
2016-12-06T04:15:23.803Z,923.27
2016-12-06T04:15:51.658Z,923.3
2016-12-06T04:16:19.866Z,923.31
2016-12-06T04:16:47.681Z,923.3
2016-12-06T04:17:15.559Z,923.29
2016-12-06T04:17:43.546Z,923.28
2016-12-06T04:18:11.469Z,923.3
2016-12-06T04:18:39.315Z,923.27
2016-12-06T04:19:07.772Z,923.28
2016-12-06T04:19:35.849Z,923.27
2016-12-06T04:20:04.265Z,923.31
2016-12-06T04:20:32.089Z,923.3
2016-12-06T04:20:59.846Z,923.29
2016-12-06T04:21:27.693Z,923.28
2016-12-06T04:21:55.544Z,923.33
2016-12-06T04:22:23.419Z,923.29
2016-12-06T04:22:51.560Z,923.29
2016-12-06T04:23:19.349Z,923.28
2016-12-06T04:23:47.178Z,923.22
2016-12-06T04:24:14.941Z,923.25
2016-12-06T04:24:42.712Z,923.25
2016-12-06T04:25:10.902Z,923.24
2016-12-06T04:25:39.011Z,923.28
2016-12-06T04:26:07.111Z,923.31
2016-12-06T04:26:35.269Z,923.3
2016-12-06T04:27:03.135Z,923.34
2016-12-06T04:27:31.478Z,923.29
2016-12-06T04:27:59.255Z,923.34
2016-12-06T04:28:27.588Z,923.34
2016-12-06T04:28:55.730Z,923.34
2016-12-06T04:29:23.845Z,923.38
2016-12-06T04:29:51.951Z,923.41
2016-12-06T04:30:19.687Z,923.43
2016-12-06T04:30:48.115Z,923.43
2016-12-06T04:31:15.975Z,923.45
2016-12-06T04:31:44.043Z,923.47
2016-12-06T04:32:12.069Z,923.5
2016-12-06T04:32:39.960Z,923.5
2016-12-06T04:33:07.738Z,923.52
2016-12-06T04:33:35.551Z,923.51
2016-12-06T04:34:04.253Z,923.51
2016-12-06T04:34:32.044Z,923.51
2016-12-06T04:35:00.137Z,923.52
2016-12-06T04:35:27.983Z,923.52
2016-12-06T04:35:56.149Z,923.5
2016-12-06T04:36:24.251Z,923.48
2016-12-06T04:36:52.078Z,923.51
2016-12-06T04:37:19.856Z,923.52
2016-12-06T04:37:48.080Z,923.51
2016-12-06T04:38:16.229Z,923.52
2016-12-06T04:38:44.023Z,923.5
2016-12-06T04:39:12.352Z,923.46
2016-12-06T04:39:40.173Z,923.47
2016-12-06T04:40:08.059Z,923.48
2016-12-06T04:40:36.819Z,923.45
2016-12-06T04:41:04.655Z,923.47
2016-12-06T04:41:32.513Z,923.51
2016-12-06T04:42:00.519Z,923.45
2016-12-06T04:42:28.632Z,923.46
2016-12-06T04:42:56.468Z,923.42
2016-12-06T04:43:24.999Z,923.47
2016-12-06T04:43:52.800Z,923.44
2016-12-06T04:44:21.378Z,923.42
2016-12-06T04:44:49.165Z,923.49
2016-12-06T04:45:17.341Z,923.48
2016-12-06T04:45:45.447Z,923.44
2016-12-06T04:46:14.419Z,923.47
2016-12-06T04:46:42.920Z,923.45
2016-12-06T04:47:11.134Z,923.47
2016-12-06T04:47:39.165Z,923.44
2016-12-06T04:48:07.244Z,923.48
2016-12-06T04:48:35.038Z,923.46
2016-12-06T04:49:03.222Z,923.46
2016-12-06T04:49:30.980Z,923.48
2016-12-06T04:49:59.160Z,923.51
2016-12-06T04:50:27.003Z,923.5
2016-12-06T04:50:55.129Z,923.48
2016-12-06T04:51:23.195Z,923.5
2016-12-06T04:51:51.013Z,923.46
2016-12-06T04:52:19.149Z,923.49
2016-12-06T04:52:46.968Z,923.48
2016-12-06T04:53:15.088Z,923.5
2016-12-06T04:53:43.233Z,923.48
2016-12-06T04:54:11.001Z,923.49
2016-12-06T04:54:38.797Z,923.49
2016-12-06T04:55:06.905Z,923.51
2016-12-06T04:55:35.042Z,923.51
2016-12-06T04:56:03.558Z,923.5
2016-12-06T04:56:31.691Z,923.49
2016-12-06T04:56:59.857Z,923.53
2016-12-06T04:57:27.610Z,923.53
2016-12-06T04:57:55.865Z,923.53
2016-12-06T04:58:24.050Z,923.57
2016-12-06T04:58:52.174Z,923.59
2016-12-06T04:59:20.246Z,923.61
2016-12-06T04:59:48.073Z,923.6
2016-12-06T05:00:15.909Z,923.59
2016-12-06T05:00:43.687Z,923.55
2016-12-06T05:01:11.785Z,923.59
2016-12-06T05:01:39.580Z,923.57
2016-12-06T05:02:07.696Z,923.57
2016-12-06T05:02:35.553Z,923.55
2016-12-06T05:03:03.914Z,923.52
2016-12-06T05:03:31.738Z,923.57
2016-12-06T05:03:59.596Z,923.56
2016-12-06T05:04:27.708Z,923.54
2016-12-06T05:04:55.859Z,923.55
2016-12-06T05:05:23.941Z,923.52
2016-12-06T05:05:51.763Z,923.55
2016-12-06T05:06:20.173Z,923.51
2016-12-06T05:06:48.589Z,923.54
2016-12-06T05:07:16.412Z,923.52
2016-12-06T05:07:44.235Z,923.52
2016-12-06T05:08:12.353Z,923.55
2016-12-06T05:08:40.775Z,923.55
2016-12-06T05:09:08.919Z,923.51
2016-12-06T05:09:36.722Z,923.54
2016-12-06T05:10:04.558Z,923.53
2016-12-06T05:10:33.009Z,923.54
2016-12-06T05:11:00.870Z,923.56
2016-12-06T05:11:28.720Z,923.6
2016-12-06T05:11:56.529Z,923.59
2016-12-06T05:12:24.364Z,923.58
2016-12-06T05:12:52.258Z,923.58
2016-12-06T05:13:20.078Z,923.62
2016-12-06T05:13:47.786Z,923.58
2016-12-06T05:14:16.052Z,923.61
2016-12-06T05:14:43.883Z,923.61
2016-12-06T05:15:12.591Z,923.61
2016-12-06T05:15:41.043Z,923.65
2016-12-06T05:16:09.238Z,923.6
2016-12-06T05:16:37.381Z,923.64
2016-12-06T05:17:05.191Z,923.64
2016-12-06T05:17:33.296Z,923.65
2016-12-06T05:18:01.129Z,923.69
2016-12-06T05:18:29.339Z,923.66
2016-12-06T05:18:57.495Z,923.64
2016-12-06T05:19:25.319Z,923.69
2016-12-06T05:19:53.129Z,923.67
2016-12-06T05:20:21.009Z,923.66
2016-12-06T05:20:48.895Z,923.64
2016-12-06T05:21:16.780Z,923.64
2016-12-06T05:21:44.927Z,923.68
2016-12-06T05:22:13.411Z,923.64
2016-12-06T05:22:41.601Z,923.65
2016-12-06T05:23:09.690Z,923.65
2016-12-06T05:23:37.467Z,923.64
2016-12-06T05:24:05.225Z,923.62
2016-12-06T05:24:33.294Z,923.65
2016-12-06T05:25:01.483Z,923.66
2016-12-06T05:25:29.382Z,923.65
2016-12-06T05:25:57.157Z,923.62
2016-12-06T05:26:24.920Z,923.62
2016-12-06T05:26:53.010Z,923.67
2016-12-06T05:27:21.157Z,923.65
2016-12-06T05:27:48.959Z,923.66
2016-12-06T05:28:31.708Z,923.67
2016-12-06T05:28:59.833Z,923.66
2016-12-06T05:29:27.992Z,923.68
2016-12-06T05:29:56.230Z,923.73
2016-12-06T05:30:24.096Z,923.73
2016-12-06T05:30:52.240Z,923.74
2016-12-06T05:31:20.092Z,923.73
2016-12-06T05:31:47.995Z,923.76
2016-12-06T05:32:15.794Z,923.78
2016-12-06T05:32:43.637Z,923.78
2016-12-06T05:33:11.875Z,923.79
2016-12-06T05:33:40.330Z,923.78
2016-12-06T05:34:08.183Z,923.77
2016-12-06T05:34:36.218Z,923.75
2016-12-06T05:35:04.003Z,923.76
2016-12-06T05:35:31.799Z,923.74
2016-12-06T05:36:00.305Z,923.75
2016-12-06T05:36:28.402Z,923.72
2016-12-06T05:36:56.212Z,923.74
2016-12-06T05:37:24.286Z,923.74
2016-12-06T05:37:52.090Z,923.76
2016-12-06T05:38:20.161Z,923.74
2016-12-06T05:38:47.966Z,923.75
2016-12-06T05:39:15.827Z,923.75
2016-12-06T05:39:43.709Z,923.75
2016-12-06T05:40:11.451Z,923.76
2016-12-06T05:40:39.591Z,923.75
2016-12-06T05:41:07.483Z,923.76
2016-12-06T05:41:35.319Z,923.76
2016-12-06T05:42:03.081Z,923.75
2016-12-06T05:42:30.871Z,923.72
2016-12-06T05:42:58.729Z,923.78
2016-12-06T05:43:26.569Z,923.76
2016-12-06T05:43:54.396Z,923.77
2016-12-06T05:44:22.680Z,923.78
2016-12-06T05:44:50.781Z,923.79
2016-12-06T05:45:18.873Z,923.87
2016-12-06T05:45:46.998Z,923.82
2016-12-06T05:46:14.822Z,923.83
2016-12-06T05:46:42.689Z,923.85
2016-12-06T05:47:10.502Z,923.84
2016-12-06T05:47:38.931Z,923.84
2016-12-06T05:48:07.064Z,923.84
2016-12-06T05:48:34.955Z,923.85
2016-12-06T05:49:03.391Z,923.86
2016-12-06T05:49:31.248Z,923.85
2016-12-06T05:49:59.004Z,923.78
2016-12-06T05:50:27.417Z,923.84
2016-12-06T05:50:55.512Z,923.84
2016-12-06T05:51:23.414Z,923.89
2016-12-06T05:51:51.528Z,923.9
2016-12-06T05:52:19.701Z,923.87
2016-12-06T05:52:47.859Z,923.86
2016-12-06T05:53:15.649Z,923.88
2016-12-06T05:53:43.478Z,923.89
2016-12-06T05:54:11.927Z,923.85
2016-12-06T05:54:40.101Z,923.85